Time;durP1;ratioP1;P1;durP2;ratioP2;P2;SDS_P1;SDS_P2;PMS_P1;PMS_P2;Temp;Humidity;BMP_temperature;BMP_pressure;BME280_temperature;BME280_humidity;BME280_pressure;Samples;Min_cycle;Max_cycle;Signal;HPM_P1;HPM_P2
2023/10/30 00:00:11;;;;;;;12.70;7.70;;;;;;;12.06;89.34;99235.80;129930;1277;114708;-64
2023/10/30 00:03:33;;;;;;;12.50;7.60;;;;;;;11.94;89.20;99224.60;129907;1273;129801;-62
2023/10/30 00:06:35;;;;;;;13.20;7.50;;;;;;;11.84;89.42;99232.46;129984;1256;115170;-64
2023/10/30 00:09:37;;;;;;;16.30;7.80;;;;;;;11.76;89.39;99231.42;129913;1261;114879;-62
2023/10/30 00:12:39;;;;;;;13.40;7.50;;;;;;;11.69;89.50;99221.04;129567;1254;114823;-63
2023/10/30 00:15:41;;;;;;;14.40;8.40;;;;;;;11.61;89.45;99226.39;129841;1253;114703;-64
2023/10/30 00:18:45;;;;;;;20.70;8.30;;;;;;;11.53;89.89;99234.69;130024;1257;114866;-63
2023/10/30 00:21:48;;;;;;;13.90;8.00;;;;;;;11.46;89.70;99220.53;130033;1257;115338;-64
2023/10/30 00:24:50;;;;;;;18.40;9.30;;;;;;;11.39;89.86;99223.83;130007;1257;114797;-63
2023/10/30 00:27:53;;;;;;;18.20;8.70;;;;;;;11.32;89.92;99243.29;129971;1257;115150;-64
2023/10/30 00:30:55;;;;;;;13.40;8.40;;;;;;;11.26;90.21;99243.88;129966;1256;114828;-64
2023/10/30 00:33:57;;;;;;;16.00;9.20;;;;;;;11.22;90.51;99249.31;129899;1257;114692;-62
2023/10/30 00:36:59;;;;;;;16.50;9.60;;;;;;;11.19;90.34;99251.48;129523;1254;115111;-60
2023/10/30 00:40:01;;;;;;;16.70;9.00;;;;;;;11.15;90.53;99237.48;129909;1253;114719;-60
2023/10/30 00:43:03;;;;;;;14.60;9.30;;;;;;;11.13;90.82;99235.64;129968;1253;115164;-60
2023/10/30 00:46:06;;;;;;;17.30;9.60;;;;;;;11.11;91.28;99246.51;129933;1254;128689;-63
2023/10/30 00:49:08;;;;;;;17.50;9.50;;;;;;;11.10;91.12;99234.27;129986;1254;114799;-64
2023/10/30 00:52:10;;;;;;;13.50;8.80;;;;;;;11.10;91.14;99245.86;129846;1257;114777;-65
2023/10/30 00:55:13;;;;;;;18.20;9.80;;;;;;;11.09;91.66;99248.61;130047;1254;115302;-65
2023/10/30 00:58:15;;;;;;;17.10;8.60;;;;;;;11.09;91.68;99235.52;129600;1253;114782;-65
2023/10/30 01:01:17;;;;;;;13.20;8.70;;;;;;;11.10;92.00;99241.75;129991;1254;115246;-64
2023/10/30 01:04:19;;;;;;;14.10;8.40;;;;;;;11.12;92.23;99238.38;130166;1254;114811;-64
2023/10/30 01:07:21;;;;;;;20.10;8.20;;;;;;;11.13;92.38;99227.80;129830;1259;128188;-64
2023/10/30 01:10:23;;;;;;;17.50;8.20;;;;;;;11.15;92.24;99224.30;129946;1259;114706;-64
2023/10/30 01:13:26;;;;;;;19.70;10.20;;;;;;;11.16;92.37;99219.70;130196;1260;114706;-64
2023/10/30 01:16:28;;;;;;;13.80;7.30;;;;;;;11.17;92.56;99218.94;130254;1254;114837;-65
2023/10/30 01:19:30;;;;;;;12.80;6.90;;;;;;;11.18;92.78;99214.22;129876;1257;115452;-65
2023/10/30 01:22:32;;;;;;;14.90;7.40;;;;;;;11.19;92.91;99212.54;130072;1254;115149;-63
2023/10/30 01:25:34;;;;;;;12.90;7.00;;;;;;;11.20;92.65;99209.82;129614;1276;114885;-63
2023/10/30 01:28:36;;;;;;;10.50;7.30;;;;;;;11.21;92.86;99213.15;130062;1259;114717;-64
2023/10/30 01:31:40;;;;;;;9.20;6.50;;;;;;;11.22;93.00;99215.04;130272;1254;114738;-65
2023/10/30 01:34:44;;;;;;;12.80;6.60;;;;;;;11.22;93.12;99211.06;130023;1261;115345;-65
2023/10/30 01:37:45;;;;;;;15.60;7.20;;;;;;;11.23;93.24;99214.93;130161;1268;115237;-65
2023/10/30 01:40:51;;;;;;;10.30;6.60;;;;;;;11.23;93.44;99215.34;129844;1254;114883;-64
2023/10/30 01:43:54;;;;;;;10.30;6.60;;;;;;;11.22;93.61;99212.34;129712;1255;114909;-66
2023/10/30 01:46:56;;;;;;;11.20;7.10;;;;;;;11.21;93.50;99210.81;129868;1259;114840;-64
2023/10/30 01:50:01;;;;;;;13.20;6.40;;;;;;;11.20;93.57;99201.74;129889;1258;114724;-63
2023/10/30 01:53:03;;;;;;;13.60;7.90;;;;;;;11.17;93.41;99194.80;129971;1257;114773;-62
2023/10/30 01:56:06;;;;;;;12.20;7.90;;;;;;;11.14;93.41;99198.93;130143;1255;114728;-62
2023/10/30 01:59:08;;;;;;;15.10;8.70;;;;;;;11.12;93.70;99193.55;130127;1254;114944;-60
2023/10/30 02:02:11;;;;;;;15.60;7.90;;;;;;;11.11;93.78;99194.70;130314;1254;114769;-61
2023/10/30 02:05:14;;;;;;;13.20;7.10;;;;;;;11.09;93.73;99192.98;129924;1276;129028;-61
2023/10/30 02:08:16;;;;;;;18.50;8.60;;;;;;;11.10;93.64;99178.29;130200;1276;114830;-59
2023/10/30 02:11:19;;;;;;;11.10;7.30;;;;;;;11.10;94.28;99170.23;130062;1253;115110;-60
2023/10/30 02:14:21;;;;;;;11.10;7.50;;;;;;;11.12;94.21;99181.77;130061;1258;114724;-61
2023/10/30 02:17:23;;;;;;;13.90;7.60;;;;;;;11.14;94.04;99195.77;129951;1257;114782;-60
2023/10/30 02:20:26;;;;;;;15.10;8.40;;;;;;;11.14;94.44;99211.63;129978;1254;115234;-60
2023/10/30 02:23:28;;;;;;;13.40;7.90;;;;;;;11.15;94.48;99209.10;129978;1255;114789;-60
2023/10/30 02:26:31;;;;;;;11.40;7.10;;;;;;;11.16;94.94;99212.94;130023;1254;115304;-61
2023/10/30 02:29:33;;;;;;;12.60;7.20;;;;;;;11.16;94.79;99218.81;129754;1260;115179;-60
2023/10/30 02:32:36;;;;;;;11.20;7.60;;;;;;;11.17;94.86;99224.83;130056;1257;114815;-60
2023/10/30 02:35:39;;;;;;;19.80;8.90;;;;;;;11.19;94.44;99219.70;130003;1254;114697;-62
2023/10/30 02:38:41;;;;;;;12.40;8.00;;;;;;;11.19;94.73;99207.16;129962;1259;114780;-61
2023/10/30 02:41:44;;;;;;;15.40;7.90;;;;;;;11.19;94.72;99207.84;129923;1257;115243;-62
2023/10/30 02:44:46;;;;;;;13.40;7.40;;;;;;;11.20;94.89;99217.16;129631;1259;127576;-60
2023/10/30 02:47:49;;;;;;;11.90;8.00;;;;;;;11.17;94.71;99232.31;129947;1254;114716;-61
2023/10/30 02:50:51;;;;;;;13.80;7.40;;;;;;;11.15;94.70;99232.15;129982;1257;114782;-59
2023/10/30 02:53:53;;;;;;;17.20;8.00;;;;;;;11.12;94.90;99229.32;130008;1257;115135;-62
2023/10/30 02:56:56;;;;;;;13.20;7.60;;;;;;;11.09;94.65;99227.89;129557;1253;116368;-63
2023/10/30 02:59:58;;;;;;;16.80;8.00;;;;;;;11.06;94.77;99223.25;129972;1257;114741;-61
2023/10/30 03:03:00;;;;;;;12.40;7.80;;;;;;;11.04;95.01;99219.98;129999;1257;114711;-64
2023/10/30 03:06:03;;;;;;;16.10;8.20;;;;;;;11.03;94.90;99220.08;129776;1273;128613;-61
2023/10/30 03:09:05;;;;;;;11.10;7.50;;;;;;;11.01;95.01;99221.49;129909;1259;114777;-61
2023/10/30 03:12:08;;;;;;;13.20;7.20;;;;;;;11.00;94.73;99225.51;129828;1276;114742;-60
2023/10/30 03:15:10;;;;;;;11.80;6.80;;;;;;;10.97;94.93;99239.06;129927;1259;114790;-62
2023/10/30 03:18:13;;;;;;;12.50;7.00;;;;;;;10.96;94.68;99260.39;129661;1259;115031;-62
2023/10/30 03:21:16;;;;;;;11.30;7.30;;;;;;;10.93;94.81;99261.98;129936;1257;115437;-61
2023/10/30 03:24:18;;;;;;;10.30;6.20;;;;;;;10.92;95.06;99266.02;129944;1254;114931;-61
2023/10/30 03:27:20;;;;;;;11.80;6.60;;;;;;;10.91;95.46;99268.25;130079;1259;114738;-62
2023/10/30 03:30:22;;;;;;;14.00;6.90;;;;;;;10.91;94.98;99266.96;129685;1263;115225;-62
2023/10/30 03:33:25;;;;;;;9.70;6.40;;;;;;;10.90;95.34;99259.73;129857;1259;115138;-60
2023/10/30 03:36:29;;;;;;;11.80;7.10;;;;;;;10.89;95.45;99256.00;129896;1253;115349;-61
2023/10/30 03:39:31;;;;;;;9.80;6.20;;;;;;;10.89;95.31;99264.61;130035;1266;114808;-61
2023/10/30 03:42:33;;;;;;;12.50;6.30;;;;;;;10.88;95.36;99255.39;129866;1257;115129;-61
2023/10/30 03:45:35;;;;;;;11.60;6.30;;;;;;;10.87;95.45;99246.52;129970;1253;114810;-61
2023/10/30 03:48:38;;;;;;;10.70;5.60;;;;;;;10.87;95.44;99250.29;129905;1277;128980;-62
2023/10/30 03:51:41;;;;;;;7.80;5.70;;;;;;;10.86;95.76;99245.73;130011;1258;114817;-62
2023/10/30 03:54:43;;;;;;;11.40;5.80;;;;;;;10.84;95.42;99251.38;129950;1273;114780;-63
2023/10/30 03:57:45;;;;;;;14.40;6.00;;;;;;;10.82;95.72;99259.02;129956;1259;115089;-62
2023/10/30 04:00:48;;;;;;;11.60;5.90;;;;;;;10.78;95.39;99263.52;129599;1259;114792;-64
2023/10/30 04:03:51;;;;;;;10.70;5.90;;;;;;;10.74;95.07;99263.09;130013;1259;115117;-62
2023/10/30 04:06:53;;;;;;;9.30;5.40;;;;;;;10.69;95.47;99262.77;129973;1254;114802;-60
2023/10/30 04:09:56;;;;;;;7.50;4.80;;;;;;;10.62;94.91;99271.05;129915;1254;114853;-62
2023/10/30 04:12:58;;;;;;;9.60;5.20;;;;;;;10.55;95.30;99280.60;130087;1257;114735;-62
2023/10/30 04:16:00;;;;;;;8.00;5.20;;;;;;;10.47;94.98;99285.22;129943;1259;114774;-61
2023/10/30 04:19:02;;;;;;;10.00;5.80;;;;;;;10.42;95.38;99289.33;130013;1255;114808;-60
2023/10/30 04:22:04;;;;;;;11.10;5.90;;;;;;;10.38;95.50;99299.75;130144;1259;114754;-61
2023/10/30 04:25:08;;;;;;;13.00;6.20;;;;;;;10.35;95.43;99298.33;130010;1259;114823;-60
2023/10/30 04:28:13;;;;;;;10.90;6.50;;;;;;;10.31;95.25;99299.61;129635;1269;128430;-61
2023/10/30 04:31:15;;;;;;;14.00;6.80;;;;;;;10.29;95.71;99301.86;129768;1262;115223;-59
2023/10/30 04:34:19;;;;;;;10.70;6.90;;;;;;;10.28;95.65;99312.64;129870;1277;114794;-60
2023/10/30 04:37:22;;;;;;;12.30;7.90;;;;;;;10.28;95.81;99311.96;129883;1268;115088;-60
2023/10/30 04:40:24;;;;;;;14.30;7.20;;;;;;;10.28;95.88;99301.80;129995;1253;114645;-61
2023/10/30 04:43:27;;;;;;;11.10;7.40;;;;;;;10.27;96.20;99310.74;129895;1254;114792;-61
2023/10/30 04:46:30;;;;;;;14.80;9.60;;;;;;;10.27;96.21;99316.45;130028;1258;114771;-60
2023/10/30 04:49:35;;;;;;;18.80;10.20;;;;;;;10.27;96.29;99322.89;130042;1259;114744;-60
2023/10/30 04:52:37;;;;;;;14.10;10.50;;;;;;;10.27;95.91;99325.39;129609;1260;114757;-64
2023/10/30 04:55:40;;;;;;;16.90;11.10;;;;;;;10.28;96.32;99321.41;129997;1253;114871;-61
2023/10/30 04:58:42;;;;;;;14.30;10.00;;;;;;;10.29;96.33;99319.59;129875;1254;114760;-61
2023/10/30 05:01:44;;;;;;;17.40;9.90;;;;;;;10.29;96.49;99325.63;130038;1254;114709;-60
2023/10/30 05:04:46;;;;;;;16.20;10.20;;;;;;;10.29;96.28;99329.72;130018;1272;128934;-61
2023/10/30 05:07:48;;;;;;;15.20;9.70;;;;;;;10.29;96.65;99328.84;129983;1256;114814;-61
2023/10/30 05:10:50;;;;;;;14.70;9.80;;;;;;;10.29;96.61;99326.88;129993;1259;114799;-60
2023/10/30 05:13:52;;;;;;;17.80;10.30;;;;;;;10.30;96.49;99329.88;130090;1259;114859;-61
2023/10/30 05:16:54;;;;;;;19.60;10.60;;;;;;;10.29;96.67;99322.27;130008;1258;114696;-60
2023/10/30 05:19:56;;;;;;;19.80;10.40;;;;;;;10.27;96.78;99317.71;130101;1254;114708;-60
2023/10/30 05:22:58;;;;;;;14.10;9.20;;;;;;;10.25;96.44;99319.84;129963;1259;114771;-63
2023/10/30 05:26:01;;;;;;;12.90;9.00;;;;;;;10.23;96.14;99320.85;130012;1269;114727;-60
2023/10/30 05:29:03;;;;;;;17.10;10.70;;;;;;;10.19;96.14;99327.70;130076;1253;114747;-61
2023/10/30 05:32:06;;;;;;;18.80;9.50;;;;;;;10.12;95.88;99329.75;129705;1277;115269;-61
2023/10/30 05:35:08;;;;;;;14.70;9.50;;;;;;;10.05;95.75;99334.26;130010;1262;114753;-62
2023/10/30 05:38:10;;;;;;;18.40;10.00;;;;;;;9.98;95.91;99339.16;130025;1276;115076;-64
2023/10/30 05:41:12;;;;;;;15.80;8.60;;;;;;;9.92;95.73;99337.24;129973;1277;114722;-64
2023/10/30 05:44:15;;;;;;;17.40;8.70;;;;;;;9.85;95.84;99330.52;129730;1259;114779;-62
2023/10/30 05:47:17;;;;;;;13.60;8.10;;;;;;;9.79;95.70;99333.38;129980;1254;114785;-60
2023/10/30 05:50:20;;;;;;;16.00;8.20;;;;;;;9.76;96.03;99338.44;130029;1258;114707;-61
2023/10/30 05:53:22;;;;;;;17.50;9.40;;;;;;;9.73;96.36;99336.08;130043;1259;114766;-61
2023/10/30 05:56:24;;;;;;;14.00;9.00;;;;;;;9.71;96.68;99332.60;129939;1254;114725;-61
2023/10/30 05:59:26;;;;;;;22.40;10.20;;;;;;;9.73;96.87;99317.71;129954;1254;115212;-61
2023/10/30 06:02:28;;;;;;;24.50;12.60;;;;;;;9.74;96.85;99303.05;130137;1260;114774;-62
2023/10/30 06:05:31;;;;;;;15.40;9.10;;;;;;;9.76;97.04;99311.82;129676;1265;114823;-60
2023/10/30 06:08:33;;;;;;;18.40;10.20;;;;;;;9.79;97.10;99324.16;129929;1258;114746;-61
2023/10/30 06:11:36;;;;;;;13.90;10.60;;;;;;;9.82;97.19;99316.77;129814;1259;114785;-60
2023/10/30 06:14:38;;;;;;;16.50;9.90;;;;;;;9.88;97.02;99337.30;130096;1259;114799;-60
2023/10/30 06:17:41;;;;;;;21.70;10.60;;;;;;;9.93;97.44;99350.93;129776;1261;114801;-62
2023/10/30 06:20:44;;;;;;;15.00;9.80;;;;;;;9.98;97.33;99356.46;130013;1259;114782;-60
2023/10/30 06:23:46;;;;;;;19.70;11.90;;;;;;;10.04;97.62;99357.55;130007;1253;114741;-60
2023/10/30 06:26:49;;;;;;;15.70;10.20;;;;;;;10.10;97.58;99361.45;129851;1259;114718;-61
2023/10/30 06:29:51;;;;;;;17.90;10.10;;;;;;;10.17;97.83;99367.27;130114;1259;115328;-61
2023/10/30 06:32:53;;;;;;;17.10;9.80;;;;;;;10.25;98.05;99370.67;129700;1262;115208;-61
2023/10/30 06:35:58;;;;;;;20.50;10.50;;;;;;;10.34;98.49;99375.11;129898;1259;115131;-60
2023/10/30 06:39:01;;;;;;;15.20;9.80;;;;;;;10.43;98.64;99377.11;130001;1260;114784;-61
2023/10/30 06:42:05;;;;;;;18.90;10.80;;;;;;;10.52;98.60;99372.42;129614;1260;114905;-63
2023/10/30 06:45:08;;;;;;;19.70;9.90;;;;;;;10.61;98.61;99352.02;129955;1259;114808;-61
2023/10/30 06:48:10;;;;;;;14.70;10.00;;;;;;;10.72;98.77;99350.36;129938;1258;115016;-62
2023/10/30 06:51:12;;;;;;;13.40;9.40;;;;;;;10.84;99.00;99356.41;129965;1259;114708;-62
2023/10/30 06:54:14;;;;;;;17.70;8.90;;;;;;;10.97;98.84;99363.23;129965;1259;114755;-60
2023/10/30 06:57:16;;;;;;;15.70;9.30;;;;;;;11.12;99.14;99373.30;129886;1254;114697;-61
2023/10/30 07:00:19;;;;;;;15.60;9.00;;;;;;;11.28;99.56;99370.43;129933;1260;114727;-60
2023/10/30 07:03:21;;;;;;;14.80;8.90;;;;;;;11.47;99.88;99374.91;130103;1276;115373;-59
2023/10/30 07:06:24;;;;;;;14.30;8.50;;;;;;;11.70;99.83;99377.98;130010;1269;114757;-63
2023/10/30 07:09:26;;;;;;;14.40;7.50;;;;;;;11.94;99.96;99379.95;129733;1276;115236;-60
2023/10/30 07:12:29;;;;;;;12.00;7.30;;;;;;;12.18;99.63;99377.71;129821;1257;114721;-61
2023/10/30 07:15:31;;;;;;;9.30;6.40;;;;;;;12.40;98.85;99378.30;130139;1267;114873;-60
2023/10/30 07:18:34;;;;;;;10.40;5.80;;;;;;;12.61;98.66;99377.55;130069;1259;114783;-60
2023/10/30 07:21:36;;;;;;;12.40;5.50;;;;;;;12.79;98.23;99377.84;129999;1277;114813;-60
2023/10/30 07:24:38;;;;;;;10.90;5.80;;;;;;;12.94;98.02;99376.89;129955;1268;114718;-62
2023/10/30 07:27:40;;;;;;;9.90;5.60;;;;;;;13.11;98.03;99367.59;130137;1254;114767;-62
2023/10/30 07:30:43;;;;;;;12.70;5.30;;;;;;;13.24;97.49;99347.81;129727;1263;115243;-63
2023/10/30 07:33:46;;;;;;;6.90;5.00;;;;;;;13.37;96.96;99348.09;129994;1258;114799;-60
2023/10/30 07:36:48;;;;;;;7.60;4.60;;;;;;;13.51;96.76;99352.06;130238;1257;114733;-63
2023/10/30 07:39:51;;;;;;;15.40;5.50;;;;;;;13.67;96.47;99362.32;130020;1257;114725;-62
2023/10/30 07:42:56;;;;;;;9.70;5.50;;;;;;;13.81;96.47;99372.33;130166;1267;114718;-64
2023/10/30 07:45:58;;;;;;;;;;;;;;;13.94;96.10;99382.45;129726;1276;128802;-60
2023/10/30 07:49:04;;;;;;;6.70;4.00;;;;;;;14.01;95.72;99386.90;129886;1272;114734;-62
2023/10/30 07:52:06;;;;;;;7.50;3.90;;;;;;;14.11;95.20;99388.45;129986;1259;114771;-64
2023/10/30 07:55:08;;;;;;;7.40;3.80;;;;;;;14.19;94.98;99395.75;130037;1260;114779;-61
2023/10/30 07:58:12;;;;;;;8.10;3.90;;;;;;;14.29;95.01;99406.98;130170;1257;114774;-60
2023/10/30 08:01:18;;;;;;;10.10;4.40;;;;;;;14.38;94.71;99412.23;129697;1276;114769;-61
2023/10/30 08:04:21;;;;;;;11.10;4.90;;;;;;;14.43;94.44;99413.26;129763;1276;128315;-64
2023/10/30 08:07:23;;;;;;;7.00;4.50;;;;;;;14.49;94.54;99417.09;130205;1260;114783;-66
2023/10/30 08:10:26;;;;;;;9.20;4.80;;;;;;;14.57;94.26;99416.11;130110;1260;114791;-61
2023/10/30 08:13:28;;;;;;;10.70;3.80;;;;;;;14.66;94.33;99420.98;129984;1257;114731;-62
2023/10/30 08:16:32;;;;;;;7.50;3.90;;;;;;;14.77;94.16;99421.76;130005;1260;114881;-62
2023/10/30 08:19:34;;;;;;;3.90;3.20;;;;;;;14.86;93.92;99419.17;129991;1262;114845;-65
2023/10/30 08:22:37;;;;;;;7.50;3.70;;;;;;;14.95;93.97;99419.05;130200;1255;114806;-65
2023/10/30 08:25:39;;;;;;;7.90;4.30;;;;;;;15.04;93.76;99422.61;130422;1269;115605;-65
2023/10/30 08:28:42;;;;;;;6.50;3.70;;;;;;;15.12;93.59;99425.54;130348;1267;115210;-68
2023/10/30 08:31:45;;;;;;;5.00;3.60;;;;;;;15.21;93.37;99421.55;130093;1273;114814;-71
2023/10/30 08:34:47;;;;;;;8.20;3.60;;;;;;;15.30;92.85;99425.42;130386;1260;114803;-68
2023/10/30 08:37:49;;;;;;;12.90;3.90;;;;;;;15.41;93.10;99426.95;130491;1276;114713;-73
2023/10/30 08:40:51;;;;;;;9.30;3.60;;;;;;;15.52;92.86;99430.86;130361;1267;114779;-71
2023/10/30 08:43:53;;;;;;;12.70;3.90;;;;;;;15.63;92.35;99434.60;130331;1254;114734;-69
2023/10/30 08:46:55;;;;;;;6.40;2.90;;;;;;;15.75;92.03;99434.88;130417;1272;114678;-72
2023/10/30 08:49:57;;;;;;;4.60;3.00;;;;;;;15.84;91.61;99428.71;130129;1259;115403;-68
2023/10/30 08:52:59;;;;;;;12.40;3.50;;;;;;;15.94;91.30;99425.15;130326;1262;115222;-68
2023/10/30 08:56:05;;;;;;;5.60;2.60;;;;;;;16.05;91.12;99429.12;130429;1253;114731;-69
2023/10/30 08:59:08;;;;;;;7.70;2.60;;;;;;;16.14;90.79;99433.34;130157;1263;114712;-68
2023/10/30 09:02:10;;;;;;;5.10;2.50;;;;;;;16.21;90.22;99427.30;130336;1277;114776;-65
2023/10/30 09:05:13;;;;;;;6.30;2.30;;;;;;;16.30;90.15;99426.77;130411;1267;114804;-73
2023/10/30 09:08:15;;;;;;;4.90;2.40;;;;;;;16.39;89.76;99428.32;130865;1259;114717;-75
2023/10/30 09:11:17;;;;;;;5.30;2.30;;;;;;;16.46;89.30;99422.14;130824;1259;115157;-72
2023/10/30 09:14:19;;;;;;;9.00;3.30;;;;;;;16.51;89.00;99422.89;130399;1275;115090;-65
2023/10/30 09:17:21;;;;;;;4.30;2.20;;;;;;;16.59;88.76;99435.20;130407;1267;114723;-66
2023/10/30 09:20:23;;;;;;;8.30;2.00;;;;;;;16.65;88.17;99434.84;129601;1274;114903;-68
2023/10/30 09:23:26;;;;;;;8.10;2.50;;;;;;;16.75;87.88;99431.30;130290;1260;114786;-66
2023/10/30 09:26:29;;;;;;;8.80;1.80;;;;;;;16.80;87.64;99421.95;129860;1270;115086;-69
2023/10/30 09:29:31;;;;;;;4.20;2.40;;;;;;;16.86;87.09;99417.27;129901;1260;115502;-68
2023/10/30 09:32:34;;;;;;;3.70;2.20;;;;;;;16.93;87.09;99421.02;130116;1268;114981;-68
2023/10/30 09:35:37;;;;;;;4.80;2.50;;;;;;;16.99;86.55;99417.10;129717;1274;114812;-68
2023/10/30 09:38:41;;;;;;;6.40;2.70;;;;;;;17.03;85.65;99412.79;129915;1263;116279;-75
2023/10/30 09:41:45;;;;;;;4.80;1.90;;;;;;;17.07;85.22;99408.63;130278;1262;114801;-67
2023/10/30 09:44:50;;;;;;;3.00;2.10;;;;;;;17.10;85.15;99400.52;130421;1270;128700;-71
2023/10/30 09:47:54;;;;;;;3.10;1.80;;;;;;;17.16;85.11;99397.13;130331;1277;114782;-64
2023/10/30 09:50:58;;;;;;;3.60;1.80;;;;;;;17.21;84.57;99396.30;130280;1271;114744;-70
2023/10/30 09:54:01;;;;;;;5.80;2.50;;;;;;;17.26;84.30;99395.91;128130;1259;3477333;-65
2023/10/30 09:57:03;;;;;;;3.40;1.90;;;;;;;17.32;83.86;99402.58;130299;1259;114750;-65
2023/10/30 10:00:09;;;;;;;6.20;1.80;;;;;;;17.37;83.74;99404.09;130358;1260;115098;-65
2023/10/30 10:03:12;;;;;;;4.50;1.80;;;;;;;17.42;83.74;99411.02;130421;1260;115175;-63
2023/10/30 10:06:14;;;;;;;7.10;2.10;;;;;;;17.46;83.43;99421.99;130528;1267;114733;-62
2023/10/30 10:09:17;;;;;;;2.50;1.80;;;;;;;17.49;83.00;99418.69;130459;1267;114740;-63
2023/10/30 10:12:20;;;;;;;8.80;2.40;;;;;;;17.52;82.91;99423.08;130435;1275;114741;-63
2023/10/30 10:15:23;;;;;;;5.90;2.00;;;;;;;17.55;82.41;99422.22;130063;1262;115458;-65
2023/10/30 10:18:30;;;;;;;3.80;2.10;;;;;;;17.58;81.49;99415.66;130248;1260;114778;-64
2023/10/30 10:21:46;;;;;;;2.20;1.70;;;;;;;17.59;81.27;99413.58;130259;1254;115346;-63
2023/10/30 10:24:49;;;;;;;3.60;1.90;;;;;;;17.61;80.99;99404.36;130217;1262;114889;-70
2023/10/30 10:27:53;;;;;;;3.30;1.90;;;;;;;17.64;80.76;99403.96;129811;1270;115124;-64
2023/10/30 10:30:56;;;;;;;3.10;2.30;;;;;;;17.66;80.85;99395.61;129598;1275;114910;-67
2023/10/30 10:33:58;;;;;;;5.60;2.40;;;;;;;17.67;80.17;99392.84;130308;1260;114713;-66
2023/10/30 10:37:01;;;;;;;8.50;1.60;;;;;;;17.68;79.65;99392.36;130234;1268;115202;-69
2023/10/30 10:40:05;;;;;;;5.70;1.80;;;;;;;17.69;79.45;99384.66;130258;1260;115459;-70
2023/10/30 10:43:08;;;;;;;3.40;2.00;;;;;;;17.70;79.00;99377.70;130367;1267;114724;-70
2023/10/30 10:46:10;;;;;;;8.60;4.30;;;;;;;17.72;78.90;99372.49;130235;1267;115403;-67
2023/10/30 10:49:13;;;;;;;4.50;2.80;;;;;;;17.75;78.77;99374.20;130495;1260;114734;-63
2023/10/30 10:52:17;;;;;;;6.60;2.10;;;;;;;17.79;78.72;99378.74;130027;1271;128949;-61
2023/10/30 10:55:24;;;;;;;3.70;2.00;;;;;;;17.81;78.32;99377.11;129584;1277;115187;-63
2023/10/30 10:58:42;;;;;;;2.40;1.90;;;;;;;17.84;78.00;99371.71;129841;1273;115088;-62
2023/10/30 11:01:47;;;;;;;3.40;1.60;;;;;;;17.86;77.64;99367.16;130322;1263;114886;-64
2023/10/30 11:04:51;;;;;;;7.80;1.50;;;;;;;17.88;77.33;99361.36;129564;1276;114805;-61
2023/10/30 11:08:00;;;;;;;3.30;1.90;;;;;;;17.90;77.13;99361.91;129636;1272;128044;-64
2023/10/30 11:11:13;;;;;;;5.10;1.70;;;;;;;17.93;76.75;99355.52;129999;1255;115250;-66
2023/10/30 11:14:18;;;;;;;2.70;1.40;;;;;;;17.96;76.24;99357.93;130389;1266;114680;-69
2023/10/30 11:17:21;;;;;;;4.00;1.70;;;;;;;17.99;76.08;99350.98;130390;1254;114805;-63
2023/10/30 11:20:33;;;;;;;2.50;1.70;;;;;;;18.02;75.96;99352.02;130270;1267;114738;-64
2023/10/30 11:24:03;;;;;;;3.20;2.40;;;;;;;18.05;75.66;99343.52;130383;1260;127633;-64
2023/10/30 11:27:25;;;;;;;2.60;1.70;;;;;;;18.08;75.31;99345.83;130533;1256;115186;-65
2023/10/30 11:30:32;;;;;;;2.70;1.80;;;;;;;18.10;75.28;99338.74;130132;1263;114898;-65
2023/10/30 11:33:35;;;;;;;2.00;1.30;;;;;;;18.14;74.96;99338.55;130406;1259;114803;-67
2023/10/30 11:36:37;;;;;;;3.30;2.40;;;;;;;18.17;74.90;99339.17;130417;1260;114682;-64
2023/10/30 11:39:44;;;;;;;4.30;1.60;;;;;;;18.20;74.64;99340.67;130365;1260;114734;-64
2023/10/30 11:42:46;;;;;;;2.40;1.30;;;;;;;18.23;74.41;99344.34;129771;1270;115164;-63
2023/10/30 11:46:01;;;;;;;6.40;1.50;;;;;;;18.25;74.31;99342.23;130415;1254;114696;-66
2023/10/30 11:49:03;;;;;;;;;;;;;;;18.26;73.88;99334.16;130408;1259;114897;-65
2023/10/30 11:52:10;;;;;;;2.00;1.40;;;;;;;18.27;73.40;99333.34;130333;1267;114812;-65
2023/10/30 11:55:12;;;;;;;2.10;1.40;;;;;;;18.29;73.47;99330.44;130217;1264;128080;-64
2023/10/30 11:58:14;;;;;;;3.90;2.10;;;;;;;18.31;73.29;99327.14;130344;1276;114976;-64
2023/10/30 12:01:18;;;;;;;3.20;2.20;;;;;;;18.33;73.12;99327.14;130458;1257;115255;-68
2023/10/30 12:04:21;;;;;;;5.20;1.70;;;;;;;18.36;73.00;99322.34;130409;1257;114750;-63
2023/10/30 12:07:23;;;;;;;3.70;1.50;;;;;;;18.38;72.78;99317.20;130459;1257;115077;-63
2023/10/30 12:10:26;;;;;;;1.20;1.10;;;;;;;18.40;72.89;99306.40;130368;1257;114766;-68
2023/10/30 12:13:28;;;;;;;1.40;1.00;;;;;;;18.42;72.79;99303.14;130409;1268;114764;-67
2023/10/30 12:16:30;;;;;;;3.20;1.90;;;;;;;18.42;72.19;99304.37;130263;1267;127969;-66
2023/10/30 12:19:32;;;;;;;2.00;1.30;;;;;;;18.43;72.13;99296.83;130301;1269;114951;-64
2023/10/30 12:22:39;;;;;;;5.50;2.60;;;;;;;18.48;72.27;99292.04;130360;1266;114632;-64
2023/10/30 12:25:43;;;;;;;2.00;1.80;;;;;;;18.51;72.02;99293.02;130318;1273;115502;-63
2023/10/30 12:28:45;;;;;;;5.50;2.80;;;;;;;18.55;71.95;99293.16;130218;1264;115183;-60
2023/10/30 12:32:06;;;;;;;4.50;2.20;;;;;;;18.58;71.88;99289.02;132513;1254;114762;-60
2023/10/30 12:35:09;;;;;;;4.00;1.80;;;;;;;18.58;71.26;99293.39;130058;1276;128789;-59
2023/10/30 12:38:13;;;;;;;7.90;2.10;;;;;;;18.57;71.10;99288.09;130018;1276;114830;-63
2023/10/30 12:41:18;;;;;;;2.70;1.60;;;;;;;18.57;71.32;99281.73;129879;1258;115087;-62
2023/10/30 12:44:26;;;;;;;2.20;1.60;;;;;;;18.57;70.81;99275.27;129798;1258;115138;-59
2023/10/30 12:47:28;;;;;;;3.80;2.00;;;;;;;18.57;71.15;99274.48;130063;1254;115389;-60
2023/10/30 12:50:31;;;;;;;3.20;1.60;;;;;;;18.58;71.30;99280.20;129989;1257;114773;-59
2023/10/30 12:53:34;;;;;;;2.10;1.50;;;;;;;18.58;71.25;99284.69;130045;1257;114765;-59
2023/10/30 12:56:37;;;;;;;4.20;1.80;;;;;;;18.59;71.19;99288.41;130099;1257;115438;-60
2023/10/30 12:59:39;;;;;;;3.60;1.40;;;;;;;18.59;71.31;99292.41;130195;1276;114766;-63
2023/10/30 13:02:42;;;;;;;3.10;1.80;;;;;;;18.57;71.12;99287.86;129670;1260;114706;-62
2023/10/30 13:05:44;;;;;;;8.30;1.40;;;;;;;18.55;71.02;99279.29;129935;1257;114703;-62
2023/10/30 13:08:47;;;;;;;3.60;2.00;;;;;;;18.51;71.30;99273.31;129894;1255;115312;-59
2023/10/30 13:11:49;;;;;;;2.90;1.70;;;;;;;18.47;71.26;99272.94;129798;1256;114775;-60
2023/10/30 13:14:52;;;;;;;2.60;1.40;;;;;;;18.45;71.34;99273.35;129529;1258;115170;-59
2023/10/30 13:17:54;;;;;;;3.40;1.60;;;;;;;18.42;71.52;99270.17;129898;1257;115373;-60
2023/10/30 13:20:58;;;;;;;2.50;1.50;;;;;;;18.43;71.74;99274.48;129954;1260;115090;-60
2023/10/30 13:24:03;;;;;;;3.70;1.50;;;;;;;18.43;71.46;99272.42;129937;1267;114812;-58
2023/10/30 13:27:07;;;;;;;2.10;1.60;;;;;;;18.43;71.44;99269.89;129535;1264;127564;-60
2023/10/30 13:30:10;;;;;;;6.40;2.00;;;;;;;18.46;71.69;99273.99;129582;1278;114895;-60
2023/10/30 13:33:12;;;;;;;3.50;1.50;;;;;;;18.46;71.47;99271.25;130101;1260;114759;-61
2023/10/30 13:36:17;;;;;;;3.10;1.60;;;;;;;18.46;71.39;99271.66;130053;1260;114760;-61
2023/10/30 13:39:20;;;;;;;4.70;1.80;;;;;;;18.45;71.51;99268.22;129873;1277;115011;-61
2023/10/30 13:42:23;;;;;;;5.60;1.70;;;;;;;18.46;71.53;99270.91;130049;1277;114826;-60
2023/10/30 13:45:25;;;;;;;2.60;1.40;;;;;;;18.44;71.22;99265.52;129929;1257;114827;-60
2023/10/30 13:48:28;;;;;;;2.70;1.30;;;;;;;18.43;71.00;99250.44;129959;1254;114810;-60
2023/10/30 13:51:30;;;;;;;3.40;1.80;;;;;;;18.41;71.33;99247.14;130012;1254;114898;-61
2023/10/30 13:54:36;;;;;;;7.00;2.20;;;;;;;18.41;71.29;99241.40;130000;1257;114696;-65
2023/10/30 13:57:39;;;;;;;4.20;1.70;;;;;;;18.39;71.41;99241.92;129562;1257;114883;-64